createdAt,value
2019-02-06T00:01:42.183Z,5.90
2019-02-06T00:04:11.406Z,6.53
2019-02-06T00:06:40.301Z,6.20
2019-02-06T00:09:13.274Z,6.57
2019-02-06T00:11:42.238Z,5.77
2019-02-06T00:14:11.042Z,5.20
2019-02-06T00:16:39.937Z,6.77
2019-02-06T00:19:08.947Z,6.47
2019-02-06T00:21:38.129Z,6.60
2019-02-06T00:24:07.094Z,6.10
2019-02-06T00:26:35.978Z,5.97
2019-02-06T00:29:04.948Z,6.17
2019-02-06T00:31:33.841Z,6.43
2019-02-06T00:34:02.754Z,6.27
2019-02-06T00:36:32.101Z,6.43
2019-02-06T00:39:00.923Z,6.27
2019-02-06T00:41:29.885Z,6.30
2019-02-06T00:43:58.773Z,6.90
2019-02-06T00:46:27.726Z,6.27
2019-02-06T00:48:56.593Z,5.90
2019-02-06T00:51:25.559Z,5.50
2019-02-06T00:53:54.449Z,7.17
2019-02-06T00:56:23.322Z,5.60
2019-02-06T00:58:52.277Z,5.80
2019-02-06T01:01:21.160Z,6.73
2019-02-06T01:03:50.119Z,6.43
2019-02-06T01:06:19.063Z,5.97
2019-02-06T01:08:48.045Z,6.00
2019-02-06T01:11:16.922Z,6.37
2019-02-06T01:13:45.886Z,5.87
2019-02-06T01:16:14.757Z,6.57
2019-02-06T01:18:43.582Z,5.97
2019-02-06T01:21:12.546Z,5.60
2019-02-06T01:23:41.877Z,5.23
2019-02-06T01:26:10.934Z,6.00
2019-02-06T01:28:39.817Z,6.27
2019-02-06T01:31:16.106Z,6.53
2019-02-06T01:33:44.999Z,6.20
2019-02-06T01:36:13.889Z,5.67
2019-02-06T01:38:43.071Z,6.10
2019-02-06T01:41:12.023Z,5.90
2019-02-06T01:43:40.986Z,5.43
2019-02-06T01:46:09.946Z,5.90
2019-02-06T01:48:38.845Z,6.03
2019-02-06T01:51:07.726Z,6.30
2019-02-06T01:53:36.677Z,6.53
2019-02-06T01:56:06.811Z,6.47
2019-02-06T01:58:35.681Z,6.03
2019-02-06T02:01:05.427Z,5.80
2019-02-06T04:58:23.986Z,5.60
2019-02-06T05:00:52.861Z,5.43
2019-02-06T05:03:21.733Z,5.40
2019-02-06T05:05:50.936Z,6.27
2019-02-06T05:08:19.913Z,5.20
2019-02-06T05:10:48.718Z,6.27
2019-02-06T05:13:17.626Z,5.13
2019-02-06T05:15:46.504Z,5.93
2019-02-06T05:18:15.462Z,5.10
2019-02-06T05:20:44.334Z,5.70
2019-02-06T05:23:13.240Z,5.00
2019-02-06T05:25:42.178Z,5.47
2019-02-06T05:28:11.148Z,6.10
2019-02-06T05:30:40.033Z,5.57
2019-02-06T05:33:08.832Z,5.20
2019-02-06T05:35:37.722Z,6.07
2019-02-06T05:38:06.882Z,6.93
2019-02-06T05:40:35.797Z,5.60
2019-02-06T05:43:04.781Z,6.63
2019-02-06T05:45:33.671Z,6.23
2019-02-06T05:48:02.477Z,6.70
2019-02-06T05:50:31.273Z,6.80
2019-02-06T05:53:00.286Z,6.70
2019-02-06T05:55:29.464Z,6.70
2019-02-06T05:57:58.263Z,6.53
2019-02-06T06:00:32.327Z,6.97
2019-02-06T06:03:01.202Z,6.30
2019-02-06T06:05:30.082Z,6.47
2019-02-06T06:07:58.956Z,6.80
2019-02-06T06:10:28.040Z,5.43
2019-02-06T06:12:56.992Z,6.27
2019-02-06T06:15:25.798Z,6.77
2019-02-06T06:17:54.779Z,6.60
2019-02-06T06:20:23.707Z,6.43
2019-02-06T06:22:52.501Z,7.23
2019-02-06T06:25:21.593Z,6.70
2019-02-06T06:27:50.719Z,6.80
2019-02-06T06:30:20.151Z,5.30
2019-02-06T06:32:50.523Z,5.90
2019-02-06T06:35:19.463Z,6.60
2019-02-06T06:37:57.490Z,6.30
2019-02-06T06:40:20.787Z,6.10
2019-02-06T06:42:49.847Z,6.50
2019-02-06T06:45:20.505Z,6.40
2019-02-06T06:47:49.462Z,6.30
2019-02-06T06:50:20.223Z,6.53
2019-02-06T06:52:49.021Z,6.53
2019-02-06T06:55:17.917Z,6.57
2019-02-06T06:57:47.145Z,6.57
2019-02-06T07:00:21.013Z,5.20
2019-02-06T07:02:49.961Z,6.67
2019-02-06T07:05:18.942Z,6.77
2019-02-06T07:07:47.946Z,5.47
2019-02-06T07:10:16.941Z,6.90
2019-02-06T07:12:45.812Z,7.17
2019-02-06T07:15:17.512Z,6.10
2019-02-06T07:17:46.514Z,6.60
2019-02-06T07:20:16.280Z,6.00
2019-02-06T07:22:46.296Z,6.00
2019-02-06T07:25:16.414Z,6.30
2019-02-06T07:27:45.288Z,6.60
2019-02-06T07:30:17.861Z,6.87
2019-02-06T07:32:46.674Z,6.00
2019-02-06T07:35:15.545Z,5.87
2019-02-06T07:37:44.513Z,6.10
2019-02-06T07:40:14.465Z,7.10
2019-02-06T07:42:43.409Z,6.13
2019-02-06T07:45:12.887Z,6.43
2019-02-06T07:47:41.757Z,5.80
2019-02-06T07:50:14.553Z,6.50
2019-02-06T07:52:43.514Z,6.80
2019-02-06T07:55:12.778Z,6.53
2019-02-06T07:57:41.676Z,5.90
2019-02-06T08:00:10.811Z,6.80
2019-02-06T08:02:39.874Z,6.60
2019-02-06T08:05:10.698Z,6.20
2019-02-06T08:07:39.585Z,6.80
2019-02-06T08:10:11.303Z,5.70
2019-02-06T08:12:40.249Z,6.27
2019-02-06T08:15:10.163Z,6.40
2019-02-06T08:17:39.138Z,6.10
2019-02-06T08:20:10.084Z,6.03
2019-02-06T08:22:38.877Z,5.80
2019-02-06T08:25:08.262Z,7.03
2019-02-06T08:27:37.141Z,6.47
2019-02-06T08:30:09.303Z,6.60
2019-02-06T08:32:38.125Z,6.47
2019-02-06T08:35:07.755Z,7.10
2019-02-06T08:37:36.697Z,7.90
2019-02-06T08:40:06.677Z,6.30
2019-02-06T08:42:35.478Z,6.60
2019-02-06T08:45:05.326Z,6.27
2019-02-06T08:47:34.282Z,6.53
2019-02-06T08:50:03.226Z,6.37
2019-02-06T08:52:32.102Z,6.27
2019-02-06T08:55:00.910Z,7.50
2019-02-06T08:57:29.789Z,6.67
2019-02-06T08:59:58.587Z,6.90
2019-02-06T09:02:27.398Z,6.17
2019-02-06T09:04:56.481Z,6.43
2019-02-06T09:07:25.353Z,7.10
2019-02-06T09:09:54.389Z,6.73
2019-02-06T09:12:23.627Z,6.77
2019-02-06T09:14:52.591Z,5.83
2019-02-06T09:17:21.461Z,6.80
2019-02-06T09:19:50.345Z,5.87
2019-02-06T09:22:19.137Z,5.70
2019-02-06T09:24:47.946Z,6.30
2019-02-06T09:27:17.355Z,6.00
2019-02-06T09:29:46.185Z,5.97
2019-02-06T09:32:15.069Z,6.07
2019-02-06T09:34:44.306Z,6.10
2019-02-06T09:37:13.262Z,6.43
2019-02-06T09:39:42.134Z,5.93
2019-02-06T09:42:10.938Z,6.17
2019-02-06T09:44:39.989Z,5.80
2019-02-06T09:47:08.803Z,5.30
2019-02-06T09:49:37.686Z,6.07
2019-02-06T09:52:06.719Z,5.97
2019-02-06T09:54:35.686Z,5.87
2019-02-06T09:57:04.649Z,6.60
2019-02-06T09:59:33.898Z,5.80
2019-02-06T10:02:02.774Z,5.70
2019-02-06T10:04:31.590Z,6.70
2019-02-06T10:07:00.461Z,6.20
2019-02-06T10:09:29.355Z,8.80
2019-02-06T10:11:58.391Z,18.93
2019-02-06T10:14:27.213Z,27.63
2019-02-06T10:16:56.395Z,36.07
2019-02-06T10:19:25.293Z,41.23
2019-02-06T10:21:54.170Z,38.73
2019-02-06T10:24:22.989Z,43.87
2019-02-06T10:26:51.869Z,43.20
2019-02-06T10:29:20.855Z,42.03
2019-02-06T10:31:50.018Z,39.73
2019-02-06T10:34:18.960Z,38.73
2019-02-06T10:36:47.838Z,38.77
2019-02-06T10:39:16.747Z,36.20
2019-02-06T10:41:45.822Z,35.50
2019-02-06T10:44:14.719Z,36.00
2019-02-06T10:46:43.666Z,31.53
2019-02-06T10:49:12.473Z,32.10
2019-02-06T10:51:41.370Z,29.87
2019-02-06T10:54:10.249Z,31.63
2019-02-06T10:56:39.133Z,29.63
2019-02-06T10:59:08.095Z,31.90
2019-02-06T11:01:36.917Z,29.63
2019-02-06T11:04:06.230Z,29.57
2019-02-06T11:06:35.137Z,27.47
2019-02-06T11:09:06.090Z,27.00
2019-02-06T11:11:34.910Z,26.80
2019-02-06T11:14:04.210Z,26.23
2019-02-06T11:16:33.094Z,25.17
2019-02-06T11:19:02.317Z,25.77
2019-02-06T11:21:31.210Z,25.70
2019-02-06T11:24:00.088Z,26.00
2019-02-06T11:26:29.034Z,24.93
2019-02-06T11:28:57.937Z,26.47
2019-02-06T11:31:26.742Z,23.17
2019-02-06T11:33:55.815Z,24.27
2019-02-06T11:36:24.761Z,26.23
2019-02-06T11:38:53.670Z,37.40
2019-02-06T11:41:22.562Z,29.73
2019-02-06T11:43:51.449Z,28.13
2019-02-06T11:46:20.339Z,24.60
2019-02-06T11:48:49.166Z,24.57
2019-02-06T11:51:18.537Z,24.80
2019-02-06T11:53:47.418Z,23.60
2019-02-06T11:56:16.382Z,24.00
2019-02-06T11:58:45.266Z,21.77
2019-02-06T12:01:31.534Z,23.20
2019-02-06T12:04:00.413Z,22.57
2019-02-06T12:06:29.315Z,22.50
2019-02-06T12:08:58.126Z,21.90
2019-02-06T12:11:26.957Z,18.50
2019-02-06T12:13:55.837Z,20.80
2019-02-06T12:16:24.814Z,19.50
2019-02-06T12:18:54.022Z,18.97
2019-02-06T12:21:22.913Z,19.30
2019-02-06T12:23:51.869Z,19.30
2019-02-06T12:26:20.769Z,19.27
2019-02-06T12:28:49.577Z,19.73
2019-02-06T12:31:18.469Z,18.07
2019-02-06T12:33:47.298Z,19.13
2019-02-06T12:36:16.190Z,17.67
2019-02-06T12:38:52.989Z,18.00
2019-02-06T12:41:15.774Z,17.17
2019-02-06T12:43:44.725Z,17.43
2019-02-06T12:46:13.617Z,18.50
2019-02-06T12:48:42.494Z,16.10
2019-02-06T12:51:11.581Z,17.67
2019-02-06T12:53:40.933Z,15.57
2019-02-06T12:56:09.811Z,16.33
2019-02-06T12:58:38.617Z,15.57
2019-02-06T13:01:07.765Z,16.77
2019-02-06T13:03:36.735Z,17.23
2019-02-06T13:06:05.718Z,17.23
2019-02-06T13:08:34.554Z,16.23
2019-02-06T13:11:03.505Z,15.40
2019-02-06T13:13:32.474Z,15.80
2019-02-06T13:16:01.286Z,14.30
2019-02-06T13:18:30.094Z,14.00
2019-02-06T13:20:58.994Z,14.80
2019-02-06T13:23:27.817Z,13.30
2019-02-06T13:25:56.962Z,14.30
2019-02-06T13:28:25.833Z,16.07
2019-02-06T13:30:54.772Z,14.67
2019-02-06T13:33:23.737Z,13.70
2019-02-06T13:35:52.626Z,13.20
2019-02-06T13:38:23.216Z,14.30
2019-02-06T13:40:52.269Z,13.30
2019-02-06T13:43:21.090Z,12.87
2019-02-06T13:45:50.045Z,13.20
2019-02-06T13:48:19.006Z,13.70
2019-02-06T13:50:47.973Z,14.07
2019-02-06T13:53:16.867Z,13.10
2019-02-06T13:55:45.764Z,11.30
2019-02-06T13:58:19.951Z,13.07
2019-02-06T14:00:45.405Z,12.10
2019-02-06T14:03:14.406Z,11.90
2019-02-06T14:05:46.743Z,11.83
2019-02-06T14:08:16.084Z,11.73
2019-02-06T14:10:57.071Z,13.30
2019-02-06T14:13:16.185Z,12.00
2019-02-06T14:15:47.005Z,12.07
2019-02-06T14:18:16.064Z,10.47
2019-02-06T14:20:46.411Z,11.17
2019-02-06T14:23:38.913Z,11.97
2019-02-06T14:26:30.386Z,11.90
2019-02-06T14:29:45.108Z,11.07
2019-02-06T14:32:51.042Z,10.33
2019-02-06T14:35:59.380Z,10.93
2019-02-06T14:38:49.729Z,9.87
2019-02-06T14:41:57.698Z,10.73
2019-02-06T14:44:44.446Z,10.70
2019-02-06T14:47:28.302Z,11.03
2019-02-06T14:50:34.230Z,10.40
2019-02-06T14:53:47.282Z,10.37
2019-02-06T14:57:08.942Z,10.47
2019-02-06T15:00:38.070Z,10.63
2019-02-06T15:03:57.149Z,10.50
2019-02-06T15:06:55.547Z,9.10
2019-02-06T15:09:59.903Z,10.40
2019-02-06T15:12:50.662Z,10.53
2019-02-06T15:15:34.503Z,9.63
2019-02-06T15:18:33.818Z,9.67
2019-02-06T15:21:37.353Z,9.60
2019-02-06T15:24:43.246Z,9.20
2019-02-06T15:27:53.496Z,10.20
2019-02-06T15:31:17.742Z,9.10
2019-02-06T15:34:23.456Z,9.03
2019-02-06T15:37:35.362Z,8.60
2019-02-06T15:40:31.614Z,9.40
2019-02-06T15:43:49.106Z,8.13
2019-02-06T15:47:09.677Z,8.90
2019-02-06T15:49:58.622Z,9.53
2019-02-06T15:52:59.701Z,8.93
2019-02-06T15:55:51.841Z,9.77
2019-02-06T15:58:48.382Z,9.93
2019-02-06T16:01:29.873Z,8.70
2019-02-06T16:04:56.737Z,8.50
2019-02-06T16:08:14.674Z,7.80
2019-02-06T16:11:25.399Z,7.60
2019-02-06T16:14:27.870Z,8.73
2019-02-06T16:17:26.597Z,9.00
2019-02-06T16:20:07.830Z,8.50
2019-02-06T16:23:08.242Z,8.20
2019-02-06T16:26:10.739Z,7.70
2019-02-06T16:29:04.557Z,7.67
2019-02-06T16:32:10.757Z,8.13
2019-02-06T16:34:52.362Z,7.87
2019-02-06T16:37:51.236Z,7.60
2019-02-06T16:40:53.550Z,6.40
2019-02-06T16:43:47.922Z,7.40
2019-02-06T16:46:53.834Z,8.33
2019-02-06T16:49:35.141Z,7.97
2019-02-06T16:52:32.962Z,8.17
2019-02-06T16:55:37.462Z,8.17
2019-02-06T16:58:47.798Z,7.80
2019-02-06T17:01:59.471Z,8.47
2019-02-06T17:04:45.325Z,7.77
2019-02-06T17:07:48.281Z,7.37
2019-02-06T17:10:47.546Z,7.47
2019-02-06T17:13:39.313Z,7.07
2019-02-06T17:16:22.862Z,8.47
2019-02-06T17:19:04.502Z,7.10
2019-02-06T17:22:05.033Z,7.87
2019-02-06T17:25:06.870Z,7.80
2019-02-06T17:28:00.643Z,8.30
2019-02-06T17:31:05.163Z,8.07
2019-02-06T17:34:26.010Z,7.20
2019-02-06T17:37:02.863Z,7.47
2019-02-06T17:40:09.557Z,7.57
2019-02-06T17:43:14.742Z,8.37
2019-02-06T17:46:15.149Z,7.93
2019-02-06T17:49:06.994Z,7.97
2019-02-06T17:52:23.222Z,6.90
2019-02-06T17:55:20.807Z,7.10
2019-02-06T17:57:51.717Z,8.50
2019-02-06T18:00:41.658Z,8.03
2019-02-06T18:03:12.097Z,8.07
2019-02-06T18:05:40.978Z,7.70
2019-02-06T18:08:09.949Z,8.03
2019-02-06T18:10:38.891Z,6.97
2019-02-06T18:13:08.002Z,7.93
2019-02-06T18:15:36.881Z,8.03
2019-02-06T18:18:06.111Z,7.00
2019-02-06T18:20:35.049Z,8.27
2019-02-06T18:23:04.202Z,8.47
2019-02-06T18:25:33.164Z,7.60
2019-02-06T18:28:02.126Z,7.83
2019-02-06T18:30:31.425Z,7.43
2019-02-06T18:33:00.495Z,7.00
2019-02-06T18:35:29.454Z,7.40
2019-02-06T18:37:58.617Z,7.80
2019-02-06T18:40:27.874Z,8.77
2019-02-06T18:42:57.408Z,8.30
2019-02-06T18:45:27.889Z,8.07
2019-02-06T18:47:58.589Z,8.33
2019-02-06T18:50:27.945Z,8.00
2019-02-06T18:52:57.294Z,8.77
2019-02-06T18:55:26.322Z,8.80
2019-02-06T18:57:55.550Z,8.50
2019-02-06T19:00:32.123Z,8.93
2019-02-06T19:03:00.689Z,8.43
2019-02-06T19:05:32.671Z,8.13
2019-02-06T19:08:01.681Z,9.27
2019-02-06T19:10:30.681Z,8.83
2019-02-06T19:12:59.744Z,8.53
2019-02-06T19:15:29.089Z,8.73
2019-02-06T19:17:57.986Z,9.20
2019-02-06T19:20:26.938Z,8.70
2019-02-06T19:22:55.910Z,8.60
2019-02-06T19:25:24.784Z,9.60
2019-02-06T19:27:56.240Z,8.57
2019-02-06T19:30:27.427Z,7.80
2019-02-06T19:32:56.605Z,8.43
2019-02-06T19:35:25.493Z,8.90
2019-02-06T19:37:54.329Z,8.00
2019-02-06T19:43:50.810Z,8.10
2019-02-06T19:46:20.633Z,8.53
2019-02-06T19:48:50.308Z,8.70
2019-02-06T19:51:19.964Z,8.47
2019-02-06T19:53:49.863Z,9.23
2019-02-06T19:56:19.496Z,7.53
2019-02-06T19:58:49.266Z,8.83
2019-02-06T20:01:18.949Z,7.93
2019-02-06T20:03:48.581Z,9.00
2019-02-06T20:06:31.139Z,9.20
2019-02-06T20:09:04.758Z,8.90
2019-02-06T20:11:34.339Z,7.67
2019-02-06T20:14:03.948Z,7.13
2019-02-06T20:16:33.785Z,9.53
2019-02-06T20:19:03.465Z,9.80
2019-02-06T20:21:33.404Z,8.27
2019-02-06T20:24:03.376Z,8.40
2019-02-06T20:26:33.103Z,8.13
2019-02-06T20:29:02.489Z,8.07
2019-02-06T20:31:31.640Z,9.17
2019-02-06T20:34:00.585Z,8.80
2019-02-06T20:36:29.459Z,9.20
2019-02-06T20:38:58.359Z,8.60
2019-02-06T20:41:27.573Z,8.10
2019-02-06T20:43:56.474Z,9.07
2019-02-06T20:46:25.436Z,9.63
2019-02-06T20:48:54.250Z,7.50
2019-02-06T20:51:23.065Z,8.17
2019-02-06T20:53:51.875Z,8.57
2019-02-06T20:56:20.682Z,9.40
2019-02-06T20:58:50.026Z,8.73
2019-02-06T21:01:18.858Z,8.33
2019-02-06T21:03:47.919Z,9.40
2019-02-06T21:06:16.782Z,8.67
2019-02-06T21:08:45.598Z,7.87
2019-02-06T21:11:14.414Z,8.33
2019-02-06T21:13:43.311Z,8.10
2019-02-06T21:16:12.186Z,8.00
2019-02-06T21:18:40.989Z,8.93
2019-02-06T21:21:09.805Z,8.20
2019-02-06T21:23:38.753Z,7.17
2019-02-06T21:26:07.724Z,8.50
2019-02-06T21:28:36.603Z,9.67
2019-02-06T21:31:05.686Z,9.03
2019-02-06T21:33:34.574Z,7.97
2019-02-06T21:36:03.521Z,8.83
2019-02-06T21:38:32.486Z,7.83
2019-02-06T21:41:01.362Z,8.37
2019-02-06T21:43:30.261Z,8.07
2019-02-06T21:46:00.122Z,8.13
2019-02-06T21:48:29.679Z,8.97
2019-02-06T21:50:59.231Z,8.50
2019-02-06T21:53:29.064Z,8.20
2019-02-06T21:55:58.321Z,7.23
2019-02-06T21:58:28.170Z,7.67
2019-02-06T22:00:57.507Z,8.80
2019-02-06T22:03:26.895Z,8.30
2019-02-06T22:05:55.761Z,8.30
2019-02-06T22:08:24.637Z,7.93
2019-02-06T22:10:53.530Z,7.97
2019-02-06T22:13:22.406Z,8.43
2019-02-06T22:15:51.754Z,7.90
2019-02-06T22:18:20.637Z,8.57
2019-02-06T22:20:49.522Z,7.50
2019-02-06T22:23:18.414Z,7.53
2019-02-06T22:25:47.281Z,7.80
2019-02-06T22:28:16.094Z,8.00
2019-02-06T22:30:45.045Z,8.17
2019-02-06T22:33:13.862Z,7.90
2019-02-06T22:35:42.737Z,7.63
2019-02-06T22:38:11.615Z,7.50
2019-02-06T22:40:40.413Z,7.30
2019-02-06T22:43:09.213Z,7.10
2019-02-06T22:45:38.273Z,6.87
2019-02-06T22:48:07.166Z,7.47
2019-02-06T22:50:36.115Z,7.50
2019-02-06T22:53:05.192Z,7.83
2019-02-06T22:55:34.134Z,7.80
2019-02-06T22:58:03.002Z,6.73
2019-02-06T23:00:56.605Z,7.83
2019-02-06T23:03:37.450Z,7.93
2019-02-06T23:06:08.083Z,7.60
2019-02-06T23:08:37.041Z,6.63
2019-02-06T23:11:06.293Z,8.27
2019-02-06T23:13:35.093Z,6.90
2019-02-06T23:16:04.497Z,7.23
2019-02-06T23:18:33.452Z,7.50
2019-02-06T23:21:02.410Z,7.50
2019-02-06T23:23:31.285Z,7.13
2019-02-06T23:26:00.243Z,6.40
2019-02-06T23:28:29.287Z,7.47
2019-02-06T23:30:58.269Z,7.43
2019-02-06T23:33:27.149Z,7.23
2019-02-06T23:35:56.106Z,7.10
2019-02-06T23:38:25.053Z,6.87
2019-02-06T23:40:53.923Z,7.63
2019-02-06T23:43:22.806Z,7.13
2019-02-06T23:45:51.753Z,7.37
2019-02-06T23:48:20.897Z,7.57
2019-02-06T23:50:49.785Z,6.67
2019-02-06T23:53:18.674Z,7.60
2019-02-06T23:55:47.721Z,8.03
2019-02-06T23:58:16.605Z,6.90
